createdAt,value
2022-10-13T00:01:21.754Z,34.30
2022-10-13T00:03:50.413Z,35.55
2022-10-13T00:06:25.345Z,35.47
2022-10-13T00:08:53.416Z,34.00
2022-10-13T00:11:28.767Z,35.63
2022-10-13T00:14:00.930Z,35.90
2022-10-13T00:16:31.777Z,35.53
2022-10-13T00:18:59.579Z,34.75
2022-10-13T00:21:28.302Z,35.47
2022-10-13T00:23:55.961Z,37.30
2022-10-13T00:26:26.102Z,35.75
2022-10-13T00:28:56.186Z,34.45
2022-10-13T00:31:27.339Z,33.63
2022-10-13T00:33:55.593Z,36.70
2022-10-13T00:36:24.959Z,34.97
2022-10-13T00:38:53.424Z,35.92
2022-10-13T00:41:21.776Z,35.78
2022-10-13T00:44:00.430Z,35.03
2022-10-13T00:46:35.216Z,35.65
2022-10-13T00:49:12.855Z,36.75
2022-10-13T00:51:47.781Z,34.97
2022-10-13T00:54:21.172Z,39.83
2022-10-13T00:56:50.717Z,38.90
2022-10-13T00:59:27.423Z,38.85
2022-10-13T01:01:57.520Z,38.63
2022-10-13T01:04:40.077Z,40.60
2022-10-13T01:07:07.715Z,40.47
2022-10-13T01:09:37.757Z,39.47
2022-10-13T01:12:48.129Z,39.97
2022-10-13T01:15:47.939Z,38.67
2022-10-13T01:19:39.625Z,37.90
2022-10-13T01:22:43.186Z,38.20
2022-10-13T01:25:37.369Z,39.55
2022-10-13T01:29:11.874Z,37.65
2022-10-13T01:32:32.000Z,37.05
2022-10-13T01:35:27.873Z,37.25
2022-10-13T01:38:26.895Z,38.30
2022-10-13T01:41:20.066Z,36.00
2022-10-13T01:44:00.847Z,36.28
2022-10-13T01:46:38.027Z,38.47
2022-10-13T01:49:11.884Z,35.78
2022-10-13T01:51:40.994Z,37.58
2022-10-13T01:54:08.912Z,37.55
2022-10-13T01:56:36.232Z,37.95
2022-10-13T01:59:13.777Z,38.17
2022-10-13T02:02:21.604Z,40.30
2022-10-13T02:05:16.290Z,39.90
2022-10-13T02:07:59.791Z,41.00
2022-10-13T02:10:42.677Z,39.85
2022-10-13T02:13:13.404Z,39.65
2022-10-13T02:15:53.094Z,39.40
2022-10-13T02:18:29.205Z,40.95
2022-10-13T02:20:57.057Z,41.85
2022-10-13T02:23:24.701Z,42.50
2022-10-13T02:25:52.029Z,44.47
2022-10-13T02:28:20.179Z,43.08
2022-10-13T02:30:48.026Z,42.17
2022-10-13T02:33:16.506Z,41.25
2022-10-13T02:35:44.354Z,40.63
2022-10-13T02:38:12.002Z,41.47
2022-10-13T02:40:39.220Z,42.83
2022-10-13T02:43:06.466Z,46.72
2022-10-13T02:45:33.720Z,49.15
2022-10-13T02:48:01.047Z,50.70
2022-10-13T02:50:28.865Z,48.47
2022-10-13T02:52:56.928Z,45.97
2022-10-13T02:55:24.119Z,44.22
2022-10-13T02:57:56.923Z,47.58
2022-10-13T03:00:25.463Z,47.63
2022-10-13T03:02:52.685Z,48.00
2022-10-13T03:05:20.266Z,46.92
2022-10-13T03:07:47.460Z,48.40
2022-10-13T03:10:14.781Z,49.03
2022-10-13T03:12:41.941Z,49.28
2022-10-13T03:15:09.872Z,45.88
2022-10-13T03:17:37.009Z,44.10
2022-10-13T03:20:05.789Z,42.95
2022-10-13T03:22:33.921Z,43.08
2022-10-13T03:25:01.124Z,42.10
2022-10-13T03:27:28.358Z,41.05
2022-10-13T03:29:55.490Z,40.47
2022-10-13T03:32:23.005Z,38.03
2022-10-13T03:34:51.585Z,39.55
2022-10-13T03:37:18.801Z,39.13
2022-10-13T03:39:46.057Z,42.47
2022-10-13T03:42:14.055Z,40.33
2022-10-13T03:44:41.495Z,40.25
2022-10-13T03:47:08.724Z,40.45
2022-10-13T03:49:38.965Z,39.78
2022-10-13T03:52:06.779Z,38.22
2022-10-13T03:54:34.065Z,38.50
2022-10-13T03:57:03.194Z,39.20
2022-10-13T03:59:35.666Z,39.78
2022-10-13T04:02:04.161Z,39.85
2022-10-13T04:04:31.479Z,39.63
2022-10-13T04:06:58.708Z,39.65
2022-10-13T04:09:26.279Z,37.45
2022-10-13T04:11:53.902Z,36.65
2022-10-13T04:14:21.530Z,38.08
2022-10-13T04:16:48.632Z,38.72
2022-10-13T04:19:16.234Z,38.38
2022-10-13T04:21:44.457Z,40.25
2022-10-13T04:24:17.625Z,39.13
2022-10-13T04:26:46.328Z,38.58
2022-10-13T04:29:14.073Z,38.75
2022-10-13T04:31:44.797Z,40.40
2022-10-13T04:34:12.287Z,39.42
2022-10-13T04:36:39.675Z,40.53
2022-10-13T04:39:07.073Z,42.38
2022-10-13T04:41:35.605Z,43.85
2022-10-13T04:44:02.797Z,43.55
2022-10-13T04:46:30.693Z,39.58
2022-10-13T04:48:58.350Z,43.28
2022-10-13T04:51:32.276Z,41.15
2022-10-13T04:54:01.573Z,41.50
2022-10-13T04:56:29.653Z,42.13
2022-10-13T04:59:02.555Z,41.80
2022-10-13T05:01:29.914Z,40.17
2022-10-13T05:04:01.985Z,39.90
2022-10-13T05:06:53.255Z,41.40
2022-10-13T05:09:26.318Z,41.95
2022-10-13T05:11:55.106Z,42.17
2022-10-13T05:14:23.385Z,40.83
2022-10-13T05:16:50.610Z,41.40
2022-10-13T05:19:17.909Z,43.15
2022-10-13T05:21:45.145Z,41.72
2022-10-13T05:24:13.698Z,51.42
2022-10-13T05:26:41.770Z,50.97
2022-10-13T05:29:09.206Z,49.13
2022-10-13T05:31:36.584Z,47.78
2022-10-13T05:34:03.982Z,48.75
2022-10-13T05:36:34.758Z,51.70
2022-10-13T05:39:07.777Z,50.00
2022-10-13T05:41:35.356Z,46.25
2022-10-13T05:44:09.265Z,48.08
2022-10-13T05:46:42.513Z,48.75
2022-10-13T05:49:10.858Z,47.40
2022-10-13T05:51:50.950Z,45.22
2022-10-13T05:54:54.081Z,44.00
2022-10-13T05:57:49.788Z,42.47
2022-10-13T06:00:20.210Z,41.58
2022-10-13T06:03:05.140Z,40.42
2022-10-13T06:05:33.255Z,42.00
2022-10-13T06:08:00.782Z,42.80
2022-10-13T06:10:28.344Z,40.67
2022-10-13T06:12:55.481Z,39.50
2022-10-13T06:15:27.806Z,39.85
2022-10-13T06:17:56.797Z,40.58
2022-10-13T06:20:24.048Z,38.72
2022-10-13T06:22:51.309Z,40.28
2022-10-13T06:25:18.602Z,38.70
2022-10-13T06:27:45.900Z,38.45
2022-10-13T06:30:13.226Z,37.90
2022-10-13T06:32:41.169Z,37.08
2022-10-13T06:35:09.148Z,37.28
2022-10-13T06:37:36.671Z,36.25
2022-10-13T06:40:05.539Z,36.60
2022-10-13T06:42:34.807Z,36.75
2022-10-13T06:45:11.188Z,33.53
2022-10-13T06:47:41.179Z,35.10
2022-10-13T06:50:09.068Z,34.50
2022-10-13T06:52:37.117Z,34.78
2022-10-13T06:55:06.127Z,35.13
2022-10-13T06:57:34.183Z,34.88
2022-10-13T07:00:06.049Z,34.63
2022-10-13T07:02:34.405Z,34.67
2022-10-13T07:05:01.651Z,32.63
2022-10-13T07:07:28.882Z,33.28
2022-10-13T07:09:56.485Z,31.95
2022-10-13T07:12:23.686Z,31.45
2022-10-13T07:14:50.947Z,31.77
2022-10-13T07:17:18.990Z,27.77
2022-10-13T07:19:48.566Z,29.10
2022-10-13T07:22:16.139Z,29.67
2022-10-13T07:24:43.444Z,28.52
2022-10-13T07:27:10.738Z,27.98
2022-10-13T07:29:38.088Z,29.83
2022-10-13T07:32:06.061Z,28.38
2022-10-13T07:34:33.346Z,27.48
2022-10-13T07:37:00.566Z,28.02
2022-10-13T07:39:27.817Z,26.35
2022-10-13T07:41:54.963Z,24.95
2022-10-13T07:44:22.434Z,25.83
2022-10-13T07:46:49.772Z,24.83
2022-10-13T07:49:17.119Z,24.98
2022-10-13T07:51:44.694Z,24.27
2022-10-13T07:54:12.344Z,23.38
2022-10-13T07:56:39.876Z,23.85
2022-10-13T07:59:08.187Z,23.83
2022-10-13T08:01:35.461Z,24.88
2022-10-13T08:04:03.582Z,21.80
2022-10-13T08:06:31.022Z,22.77
2022-10-13T08:09:00.524Z,22.23
2022-10-13T08:11:27.862Z,22.52
2022-10-13T08:13:56.011Z,22.23
2022-10-13T08:16:23.517Z,21.75
2022-10-13T08:18:51.087Z,21.77
2022-10-13T08:24:14.546Z,21.30
2022-10-13T08:26:44.126Z,21.02
2022-10-13T08:29:28.198Z,19.77
2022-10-13T08:31:56.014Z,19.83
2022-10-13T08:34:25.108Z,21.38
2022-10-13T08:36:56.227Z,21.27
2022-10-13T08:39:25.466Z,21.05
2022-10-13T08:41:53.541Z,20.55
2022-10-13T08:45:06.397Z,22.25
2022-10-13T08:47:53.812Z,21.55
2022-10-13T08:50:29.109Z,20.45
2022-10-13T08:53:21.730Z,21.17
2022-10-13T08:56:09.466Z,22.38
2022-10-13T08:58:41.351Z,20.70
2022-10-13T09:01:31.720Z,21.75
2022-10-13T09:04:33.045Z,20.90
2022-10-13T09:07:09.518Z,21.75
2022-10-13T09:09:38.555Z,23.52
2022-10-13T09:12:07.710Z,22.23
2022-10-13T09:14:39.913Z,22.98
2022-10-13T09:17:20.172Z,22.88
2022-10-13T09:20:19.145Z,21.33
2022-10-13T09:23:18.606Z,21.88
2022-10-13T09:25:52.031Z,21.27
2022-10-13T09:28:28.134Z,23.10
2022-10-13T09:31:25.585Z,23.17
2022-10-13T09:34:18.738Z,23.63
2022-10-13T09:37:17.915Z,23.77
2022-10-13T09:39:45.107Z,24.10
2022-10-13T09:42:31.637Z,22.92
2022-10-13T09:45:17.106Z,22.80
2022-10-13T09:48:20.361Z,22.42
2022-10-13T09:50:55.397Z,22.15
2022-10-13T09:53:40.802Z,21.88
2022-10-13T09:56:40.676Z,21.83
2022-10-13T09:59:33.044Z,23.73
2022-10-13T10:02:22.551Z,23.27
2022-10-13T10:04:55.142Z,23.00
2022-10-13T10:07:30.767Z,23.40
2022-10-13T10:10:15.552Z,23.75
2022-10-13T10:12:44.701Z,22.95
2022-10-13T10:15:49.717Z,23.42
2022-10-13T10:19:00.384Z,22.00
2022-10-13T10:21:58.318Z,23.65
2022-10-13T10:25:01.911Z,23.33
2022-10-13T10:28:13.015Z,24.08
2022-10-13T10:30:52.604Z,21.48
2022-10-13T10:33:44.845Z,24.08
2022-10-13T10:36:22.410Z,23.98
2022-10-13T10:39:30.366Z,23.30
2022-10-13T10:42:10.012Z,24.42
2022-10-13T10:44:43.515Z,23.33
2022-10-13T10:47:28.451Z,23.80
2022-10-13T10:50:04.081Z,24.33
2022-10-13T10:56:15.703Z,28.52
2022-10-13T10:59:26.828Z,24.85
2022-10-13T11:02:08.910Z,25.40
2022-10-13T11:04:48.228Z,25.67
2022-10-13T11:07:24.451Z,23.63
2022-10-13T11:09:51.534Z,25.30
2022-10-13T11:12:22.209Z,24.17
2022-10-13T11:15:24.955Z,25.50
2022-10-13T11:17:53.586Z,25.50
2022-10-13T11:20:40.563Z,27.25
2022-10-13T11:23:13.796Z,26.67
2022-10-13T11:25:45.580Z,26.95
2022-10-13T11:28:22.167Z,27.02
2022-10-13T11:30:56.572Z,26.15
2022-10-13T11:33:38.604Z,25.92
2022-10-13T11:36:50.362Z,25.27
2022-10-13T11:42:37.500Z,27.25
2022-10-13T11:45:28.393Z,25.33
2022-10-13T11:48:40.020Z,25.83
2022-10-13T11:51:25.842Z,25.05
2022-10-13T11:54:34.678Z,26.25
2022-10-13T11:57:02.019Z,25.40
2022-10-13T11:59:37.551Z,24.40
2022-10-13T12:02:10.729Z,29.13
2022-10-13T12:04:45.678Z,27.20
2022-10-13T12:07:16.096Z,27.70
2022-10-13T12:09:55.112Z,28.45
2022-10-13T12:12:24.308Z,26.70
2022-10-13T12:14:59.874Z,28.75
2022-10-13T12:17:32.636Z,27.48
2022-10-13T12:20:20.069Z,28.55
2022-10-13T12:22:53.363Z,27.40
2022-10-13T12:25:25.959Z,28.15
2022-10-13T12:28:01.092Z,30.27
2022-10-13T12:30:37.958Z,31.17
2022-10-13T12:33:32.538Z,29.65
2022-10-13T12:36:18.273Z,30.85
2022-10-13T12:41:33.700Z,29.80
2022-10-13T12:44:05.591Z,32.20
2022-10-13T12:46:48.908Z,34.05
2022-10-13T12:49:22.668Z,33.78
2022-10-13T12:52:20.282Z,33.13
2022-10-13T12:54:55.798Z,33.40
2022-10-13T13:00:26.995Z,33.70
2022-10-13T13:02:59.112Z,34.63
2022-10-13T13:05:50.777Z,34.80
2022-10-13T13:08:31.789Z,32.67
2022-10-13T13:11:19.794Z,37.70
2022-10-13T13:13:48.322Z,36.25
2022-10-13T13:16:21.412Z,33.53
2022-10-13T13:18:51.180Z,32.72
2022-10-13T13:21:20.283Z,32.50
2022-10-13T13:23:52.862Z,32.65
2022-10-13T13:26:25.028Z,32.95
2022-10-13T13:28:55.851Z,33.40
2022-10-13T13:31:26.178Z,35.25
2022-10-13T13:33:53.882Z,34.97
2022-10-13T13:36:26.075Z,33.50
2022-10-13T13:38:54.734Z,35.28
2022-10-13T13:41:22.629Z,34.60
2022-10-13T13:43:50.290Z,35.80
2022-10-13T13:46:22.445Z,32.97
2022-10-13T13:48:50.073Z,34.40
2022-10-13T13:51:17.864Z,34.28
2022-10-13T13:53:46.340Z,34.60
2022-10-13T13:56:18.639Z,34.13
2022-10-13T13:58:46.773Z,35.78
2022-10-13T14:01:15.552Z,34.47
2022-10-13T14:03:42.795Z,34.28
2022-10-13T14:06:21.309Z,36.33
2022-10-13T14:08:49.690Z,36.28
2022-10-13T14:11:17.069Z,36.50
2022-10-13T14:13:44.310Z,36.20
2022-10-13T14:16:17.986Z,38.75
2022-10-13T14:18:45.288Z,36.97
2022-10-13T14:21:12.711Z,36.67
2022-10-13T14:23:45.459Z,34.28
2022-10-13T14:26:14.363Z,34.78
2022-10-13T14:28:43.595Z,36.97
2022-10-13T14:31:12.217Z,37.70
2022-10-13T14:33:43.162Z,36.30
2022-10-13T14:36:10.724Z,36.42
2022-10-13T14:38:37.995Z,37.13
2022-10-13T14:41:07.161Z,38.78
2022-10-13T14:43:34.445Z,36.33
2022-10-13T14:46:06.553Z,37.10
2022-10-13T14:48:35.981Z,35.65
2022-10-13T14:51:09.980Z,36.80
2022-10-13T14:53:42.110Z,37.10
2022-10-13T14:56:29.533Z,36.33
2022-10-13T14:59:01.248Z,35.65
2022-10-13T15:01:41.319Z,36.80
2022-10-13T15:04:09.207Z,38.80
2022-10-13T15:06:39.222Z,39.38
2022-10-13T15:11:41.153Z,37.80
2022-10-13T15:14:09.781Z,39.83
2022-10-13T15:16:37.839Z,39.65
2022-10-13T15:19:05.701Z,40.33
2022-10-13T15:21:33.028Z,40.97
2022-10-13T15:24:01.462Z,39.83
2022-10-13T15:26:28.817Z,38.88
2022-10-13T15:28:56.135Z,40.53
2022-10-13T15:31:24.412Z,38.42
2022-10-13T15:33:54.018Z,40.63
2022-10-13T15:36:23.351Z,37.60
2022-10-13T15:38:52.001Z,38.88
2022-10-13T15:41:19.800Z,39.10
2022-10-13T15:43:47.882Z,36.72
2022-10-13T15:46:21.501Z,39.33
2022-10-13T15:48:51.621Z,37.35
2022-10-13T15:51:21.567Z,38.60
2022-10-13T15:53:49.162Z,38.85
2022-10-13T15:56:17.492Z,40.85
2022-10-13T15:58:45.506Z,38.75
2022-10-13T16:01:14.457Z,38.80
2022-10-13T16:03:42.670Z,39.35
2022-10-13T16:06:13.293Z,37.92
2022-10-13T16:08:44.201Z,40.22
2022-10-13T16:11:18.003Z,39.15
2022-10-13T16:13:51.929Z,40.78
2022-10-13T16:16:20.809Z,40.10
2022-10-13T16:18:50.766Z,40.17
2022-10-13T16:21:23.794Z,41.80
2022-10-13T16:23:51.156Z,44.88
2022-10-13T16:26:19.187Z,40.47
2022-10-13T16:28:46.960Z,40.15
2022-10-13T16:31:16.965Z,41.38
2022-10-13T16:33:45.818Z,41.13
2022-10-13T16:36:19.577Z,41.60
2022-10-13T16:38:57.182Z,40.42
2022-10-13T16:41:24.552Z,41.25
2022-10-13T16:43:51.935Z,40.90
2022-10-13T16:46:22.350Z,38.65
2022-10-13T16:48:50.133Z,39.70
2022-10-13T16:51:26.507Z,40.50
2022-10-13T16:54:03.911Z,41.00
2022-10-13T16:56:32.799Z,41.42
2022-10-13T16:59:04.225Z,41.92
2022-10-13T17:01:32.807Z,42.78
2022-10-13T17:04:00.666Z,43.70
2022-10-13T17:06:29.129Z,43.08
2022-10-13T17:09:03.194Z,44.97
2022-10-13T17:11:34.753Z,44.38
2022-10-13T17:14:05.665Z,43.72
2022-10-13T17:16:34.121Z,44.42
2022-10-13T17:19:01.942Z,44.63
2022-10-13T17:21:36.790Z,45.40
2022-10-13T17:24:06.284Z,43.33
2022-10-13T17:26:33.646Z,45.00
2022-10-13T17:29:01.111Z,44.25
2022-10-13T17:31:28.481Z,45.15
2022-10-13T17:33:55.707Z,45.22
2022-10-13T17:36:28.031Z,54.80
2022-10-13T17:38:56.870Z,46.13
2022-10-13T17:41:24.709Z,47.72
2022-10-13T17:43:52.508Z,47.42
2022-10-13T17:46:37.328Z,45.42
2022-10-13T17:51:35.445Z,43.65
2022-10-13T17:54:03.224Z,43.20
2022-10-13T17:56:30.632Z,45.83
2022-10-13T17:58:59.115Z,46.83
2022-10-13T18:01:31.780Z,44.58
2022-10-13T18:04:05.420Z,44.55
2022-10-13T18:06:40.363Z,44.65
2022-10-13T18:09:18.106Z,45.85
2022-10-13T18:11:50.566Z,45.03
2022-10-13T18:14:22.580Z,45.28
2022-10-13T18:16:52.189Z,47.22
2022-10-13T18:19:21.190Z,43.58
2022-10-13T18:21:49.529Z,44.35
2022-10-13T18:24:16.781Z,45.28
2022-10-13T18:26:44.385Z,46.28
2022-10-13T18:29:13.198Z,45.63
2022-10-13T18:31:42.094Z,48.70
2022-10-13T18:34:15.544Z,47.35
2022-10-13T18:36:50.678Z,51.20
2022-10-13T18:39:24.980Z,48.70
2022-10-13T18:41:54.530Z,48.53
2022-10-13T18:44:23.993Z,48.03
2022-10-13T18:46:53.781Z,48.22
2022-10-13T18:49:23.845Z,50.38
2022-10-13T18:51:51.961Z,50.05
2022-10-13T18:54:19.180Z,47.88
2022-10-13T18:56:46.425Z,47.88
2022-10-13T18:59:13.596Z,47.78
2022-10-13T19:01:41.028Z,46.67
2022-10-13T19:04:08.719Z,46.38
2022-10-13T19:06:37.472Z,46.72
2022-10-13T19:09:11.427Z,46.13
2022-10-13T19:11:39.198Z,48.78
2022-10-13T19:14:11.304Z,48.20
2022-10-13T19:16:41.649Z,50.67
2022-10-13T19:19:09.173Z,50.33
2022-10-13T19:21:38.437Z,54.00
2022-10-13T19:24:08.145Z,55.03
2022-10-13T19:26:37.163Z,56.15
2022-10-13T19:29:10.444Z,53.78
2022-10-13T19:31:39.768Z,52.55
2022-10-13T19:34:12.629Z,50.00
2022-10-13T19:36:45.447Z,52.45
2022-10-13T19:39:23.961Z,51.53
2022-10-13T19:41:54.744Z,48.47
2022-10-13T19:44:24.947Z,50.65
2022-10-13T19:46:53.767Z,50.30
2022-10-13T19:49:25.944Z,48.20
2022-10-13T19:51:54.084Z,51.70
2022-10-13T19:54:22.325Z,50.85
2022-10-13T19:56:50.437Z,50.50
2022-10-13T19:59:18.993Z,51.58
2022-10-13T20:43:59.242Z,91.65
2022-10-13T20:46:27.313Z,101.88
2022-10-13T20:49:13.027Z,91.93
2022-10-13T20:54:13.786Z,70.65
2022-10-13T20:56:42.184Z,70.00
2022-10-13T20:59:14.397Z,67.38
2022-10-13T21:01:42.210Z,63.05
2022-10-13T21:04:09.738Z,65.65
2022-10-13T21:06:37.961Z,63.95
2022-10-13T21:09:06.219Z,63.55
2022-10-13T21:11:34.959Z,67.22
2022-10-13T21:14:08.358Z,67.22
2022-10-13T21:16:37.426Z,63.60
2022-10-13T21:19:09.428Z,63.63
2022-10-13T21:21:36.885Z,65.60
2022-10-13T21:24:07.465Z,64.30
2022-10-13T21:26:36.116Z,69.15
2022-10-13T21:29:04.170Z,66.03
2022-10-13T21:31:31.743Z,65.20
2022-10-13T21:33:59.201Z,66.50
2022-10-13T21:36:31.061Z,73.00
2022-10-13T21:39:03.905Z,72.47
2022-10-13T21:41:32.923Z,71.18
2022-10-13T21:44:00.173Z,68.03
2022-10-13T21:46:36.269Z,67.00
2022-10-13T21:49:05.983Z,67.70
2022-10-13T21:51:39.152Z,66.95
2022-10-13T21:54:11.325Z,66.90
2022-10-13T21:56:40.405Z,64.63
2022-10-13T21:59:09.773Z,63.33
2022-10-13T22:01:36.975Z,66.20
2022-10-13T22:04:13.269Z,63.13
2022-10-13T22:06:40.652Z,61.55
2022-10-13T22:09:08.324Z,60.17
2022-10-13T22:11:37.855Z,59.58
2022-10-13T22:14:11.677Z,57.60
2022-10-13T22:16:43.856Z,60.70
2022-10-13T22:19:11.413Z,58.78
2022-10-13T22:21:46.965Z,65.57
2022-10-13T22:24:18.462Z,63.85
2022-10-13T22:26:48.200Z,63.38
2022-10-13T22:29:21.052Z,62.30
2022-10-13T22:31:50.165Z,63.05
2022-10-13T22:34:18.047Z,66.32
2022-10-13T22:36:45.592Z,71.53
2022-10-13T22:39:14.532Z,72.22
2022-10-13T22:41:42.052Z,69.15
2022-10-13T22:44:09.394Z,68.82
2022-10-13T22:46:38.301Z,68.70
2022-10-13T22:49:07.227Z,69.38
2022-10-13T22:51:36.445Z,65.72
2022-10-13T22:54:04.870Z,64.50
2022-10-13T22:56:35.078Z,66.97
2022-10-13T22:59:08.141Z,67.25
2022-10-13T23:01:36.109Z,65.55
2022-10-13T23:04:03.863Z,67.97
2022-10-13T23:06:34.997Z,66.88
2022-10-13T23:09:07.104Z,66.28
2022-10-13T23:11:35.078Z,68.80
2022-10-13T23:14:06.037Z,68.32
2022-10-13T23:16:33.391Z,64.15
2022-10-13T23:19:00.749Z,65.75
2022-10-13T23:21:30.302Z,65.75
2022-10-13T23:24:05.801Z,65.70
2022-10-13T23:26:34.617Z,65.40
2022-10-13T23:29:03.477Z,66.95
2022-10-13T23:31:30.924Z,73.13
2022-10-13T23:33:58.790Z,69.75
2022-10-13T23:36:30.598Z,69.63
2022-10-13T23:39:06.544Z,81.45
2022-10-13T23:41:34.078Z,62.58
2022-10-13T23:44:01.367Z,67.45
2022-10-13T23:46:28.630Z,67.32
2022-10-13T23:48:56.708Z,65.40
2022-10-13T23:51:26.126Z,62.67
2022-10-13T23:53:54.413Z,61.13
2022-10-13T23:56:22.031Z,60.70
2022-10-13T23:58:50.585Z,58.33
